EZY95XT EGCC-EDDM
Flight info
| Callsign | EZY95XT |
|---|---|
| Flight time | 1h 40m |
| Altitude | 37000 |
| Route | LISTO L612 HON L15 BIG L607 KONAN UL607 MATUG DCT RUDUS T109 HAREM T104 ROKIL |
| Aircraft | A320/M-VGDW/C |
Departure
| Time | 2026-05-05 04:05 |
|---|---|
| Airport | Manchester Airport (EGCC) |
Arrival
| Time | 2026-05-05 05:46 |
|---|---|
| Airport | Munich Airport (EDDM) |
| Time | Latitude | Longitude | Altitude | Speed | Heading |
|---|---|---|---|---|---|
| 2026-05-05 03:26 | 53.36159 | -2.28208 | 272 ft | 0 kts | 224° |
| 2026-05-05 03:55 | 53.36159 | -2.28207 | 272 ft | 1 kts | 224° |
| 2026-05-05 03:55 | 53.36171 | -2.28189 | 272 ft | 3 kts | 221° |
| 2026-05-05 03:55 | 53.36186 | -2.28167 | 272 ft | 3 kts | 216° |
| 2026-05-05 03:56 | 53.36203 | -2.28148 | 272 ft | 3 kts | 206° |
| 2026-05-05 03:56 | 53.36221 | -2.28137 | 272 ft | 3 kts | 180° |
| 2026-05-05 03:56 | 53.36237 | -2.28144 | 272 ft | 2 kts | 134° |
| 2026-05-05 03:56 | 53.36247 | -2.28162 | 272 ft | 2 kts | 134° |
| 2026-05-05 03:57 | 53.36249 | -2.28165 | 272 ft | 0 kts | 134° |
| 2026-05-05 03:59 | 53.36248 | -2.28164 | 271 ft | 1 kts | 134° |
| 2026-05-05 04:00 | 53.36233 | -2.28138 | 271 ft | 5 kts | 134° |
| 2026-05-05 04:00 | 53.36198 | -2.28077 | 271 ft | 9 kts | 134° |
| 2026-05-05 04:00 | 53.36141 | -2.27981 | 271 ft | 14 kts | 134° |
| 2026-05-05 04:00 | 53.36073 | -2.27869 | 271 ft | 14 kts | 143° |
| 2026-05-05 04:01 | 53.35983 | -2.27839 | 271 ft | 14 kts | 185° |
| 2026-05-05 04:01 | 53.35889 | -2.27855 | 271 ft | 11 kts | 182° |
| 2026-05-05 04:01 | 53.35834 | -2.27780 | 271 ft | 10 kts | 131° |
| 2026-05-05 04:01 | 53.35786 | -2.27689 | 271 ft | 10 kts | 144° |
| 2026-05-05 04:02 | 53.35720 | -2.27641 | 271 ft | 10 kts | 162° |
| 2026-05-05 04:02 | 53.35656 | -2.27582 | 271 ft | 10 kts | 141° |
| 2026-05-05 04:02 | 53.35599 | -2.27504 | 271 ft | 11 kts | 141° |
| 2026-05-05 04:02 | 53.35541 | -2.27424 | 271 ft | 11 kts | 142° |
| 2026-05-05 04:03 | 53.35480 | -2.27345 | 271 ft | 12 kts | 142° |
| 2026-05-05 04:03 | 53.35404 | -2.27245 | 271 ft | 16 kts | 142° |
| 2026-05-05 04:03 | 53.35299 | -2.27202 | 271 ft | 16 kts | 185° |
| 2026-05-05 04:03 | 53.35191 | -2.27238 | 271 ft | 16 kts | 192° |
| 2026-05-05 04:04 | 53.35081 | -2.27277 | 271 ft | 16 kts | 192° |
| 2026-05-05 04:04 | 53.34986 | -2.27369 | 271 ft | 16 kts | 232° |
| 2026-05-05 04:04 | 53.34891 | -2.27567 | 271 ft | 44 kts | 230° |
| 2026-05-05 04:04 | 53.34523 | -2.28325 | 272 ft | 121 kts | 231° |
| 2026-05-05 04:05 | 53.33869 | -2.29679 | 312 ft | 173 kts | 231° |
| 2026-05-05 04:05 | 53.33071 | -2.31320 | 806 ft | 183 kts | 230° |
| 2026-05-05 04:05 | 53.32248 | -2.32917 | 1718 ft | 177 kts | 229° |
| 2026-05-05 04:05 | 53.31331 | -2.34309 | 2393 ft | 184 kts | 207° |
| 2026-05-05 04:06 | 53.30068 | -2.34618 | 2754 ft | 199 kts | 169° |
| 2026-05-05 04:06 | 53.28741 | -2.33565 | 3167 ft | 218 kts | 148° |
| 2026-05-05 04:06 | 53.27439 | -2.32100 | 3676 ft | 234 kts | 149° |
| 2026-05-05 04:06 | 53.25988 | -2.30694 | 4205 ft | 249 kts | 154° |
| 2026-05-05 04:07 | 53.24399 | -2.29363 | 4783 ft | 262 kts | 154° |
| 2026-05-05 04:07 | 53.22782 | -2.27814 | 5426 ft | 273 kts | 140° |
| 2026-05-05 04:07 | 53.21465 | -2.25573 | 6236 ft | 276 kts | 135° |
| 2026-05-05 04:07 | 53.19873 | -2.23710 | 7039 ft | 279 kts | 155° |
| 2026-05-05 04:08 | 53.18096 | -2.22483 | 7820 ft | 282 kts | 160° |
| 2026-05-05 04:08 | 53.16226 | -2.21301 | 8600 ft | 286 kts | 160° |
| 2026-05-05 04:08 | 53.14398 | -2.20049 | 9342 ft | 290 kts | 158° |
| 2026-05-05 04:08 | 53.12537 | -2.18720 | 10093 ft | 293 kts | 158° |
| 2026-05-05 04:09 | 53.10632 | -2.17360 | 10697 ft | 304 kts | 159° |
| 2026-05-05 04:09 | 53.08641 | -2.15966 | 11137 ft | 318 kts | 159° |
| 2026-05-05 04:09 | 53.06554 | -2.14526 | 11557 ft | 332 kts | 159° |
| 2026-05-05 04:09 | 53.04373 | -2.13036 | 11972 ft | 345 kts | 159° |
| 2026-05-05 04:10 | 53.02135 | -2.11497 | 12600 ft | 350 kts | 159° |
| 2026-05-05 04:10 | 52.99878 | -2.09938 | 13272 ft | 353 kts | 159° |
| 2026-05-05 04:10 | 52.97603 | -2.08367 | 13942 ft | 356 kts | 159° |
| 2026-05-05 04:10 | 52.95311 | -2.06785 | 14597 ft | 358 kts | 159° |
| 2026-05-05 04:11 | 52.93000 | -2.05196 | 15223 ft | 361 kts | 159° |
| 2026-05-05 04:11 | 52.90673 | -2.03596 | 15839 ft | 363 kts | 159° |
| 2026-05-05 04:11 | 52.88328 | -2.01990 | 16430 ft | 366 kts | 159° |
| 2026-05-05 04:11 | 52.85964 | -2.00374 | 17013 ft | 368 kts | 159° |
| 2026-05-05 04:12 | 52.83587 | -1.98749 | 17582 ft | 371 kts | 159° |
| 2026-05-05 04:12 | 52.81197 | -1.97115 | 18139 ft | 373 kts | 158° |
| 2026-05-05 04:12 | 52.78792 | -1.95473 | 18674 ft | 375 kts | 158° |
| 2026-05-05 04:12 | 52.76374 | -1.93829 | 19193 ft | 377 kts | 158° |
| 2026-05-05 04:13 | 52.73938 | -1.92172 | 19696 ft | 380 kts | 159° |
| 2026-05-05 04:13 | 52.71488 | -1.90504 | 20193 ft | 382 kts | 158° |
| 2026-05-05 04:13 | 52.69020 | -1.88828 | 20669 ft | 384 kts | 159° |
| 2026-05-05 04:13 | 52.66543 | -1.87150 | 21139 ft | 386 kts | 159° |
| 2026-05-05 04:14 | 52.64047 | -1.85462 | 21594 ft | 389 kts | 159° |
| 2026-05-05 04:14 | 52.61542 | -1.83767 | 22045 ft | 390 kts | 159° |
| 2026-05-05 04:14 | 52.59022 | -1.82067 | 22482 ft | 392 kts | 159° |
| 2026-05-05 04:14 | 52.56494 | -1.80361 | 22900 ft | 395 kts | 159° |
| 2026-05-05 04:15 | 52.53944 | -1.78641 | 23324 ft | 396 kts | 159° |
| 2026-05-05 04:15 | 52.51385 | -1.76913 | 23723 ft | 399 kts | 159° |
| 2026-05-05 04:15 | 52.48814 | -1.75183 | 24115 ft | 400 kts | 159° |
| 2026-05-05 04:15 | 52.46229 | -1.73451 | 24487 ft | 403 kts | 159° |
| 2026-05-05 04:16 | 52.43631 | -1.71712 | 24845 ft | 405 kts | 159° |
| 2026-05-05 04:16 | 52.41013 | -1.69959 | 25193 ft | 407 kts | 159° |
| 2026-05-05 04:16 | 52.38388 | -1.68199 | 25531 ft | 409 kts | 159° |
| 2026-05-05 04:16 | 52.35831 | -1.66120 | 25848 ft | 413 kts | 149° |
| 2026-05-05 04:17 | 52.33589 | -1.63166 | 26175 ft | 417 kts | 137° |
| 2026-05-05 04:17 | 52.31561 | -1.59762 | 26494 ft | 419 kts | 134° |
| 2026-05-05 04:17 | 52.29597 | -1.56220 | 26800 ft | 422 kts | 133° |
| 2026-05-05 04:17 | 52.27653 | -1.52700 | 27100 ft | 424 kts | 134° |
| 2026-05-05 04:18 | 52.25644 | -1.49175 | 27397 ft | 425 kts | 135° |
| 2026-05-05 04:18 | 52.23560 | -1.45649 | 27693 ft | 427 kts | 135° |
| 2026-05-05 04:18 | 52.21501 | -1.42230 | 27960 ft | 429 kts | 136° |
| 2026-05-05 04:18 | 52.19414 | -1.38749 | 28235 ft | 431 kts | 135° |
| 2026-05-05 04:19 | 52.17328 | -1.35226 | 28500 ft | 433 kts | 135° |
| 2026-05-05 04:19 | 52.15241 | -1.31671 | 28767 ft | 434 kts | 135° |
| 2026-05-05 04:19 | 52.13150 | -1.28108 | 29025 ft | 436 kts | 135° |
| 2026-05-05 04:19 | 52.11044 | -1.24541 | 29276 ft | 438 kts | 135° |
| 2026-05-05 04:20 | 52.08925 | -1.20979 | 29515 ft | 440 kts | 135° |
| 2026-05-05 04:20 | 52.06793 | -1.17400 | 29757 ft | 441 kts | 135° |
| 2026-05-05 04:20 | 52.04650 | -1.13810 | 29997 ft | 443 kts | 135° |
| 2026-05-05 04:20 | 52.02506 | -1.10214 | 30227 ft | 445 kts | 135° |
| 2026-05-05 04:21 | 52.00347 | -1.06598 | 30454 ft | 446 kts | 135° |
| 2026-05-05 04:21 | 51.98184 | -1.02991 | 30715 ft | 446 kts | 135° |
| 2026-05-05 04:21 | 51.96031 | -0.99405 | 31187 ft | 441 kts | 135° |
| 2026-05-05 04:21 | 51.93902 | -0.95854 | 31575 ft | 438 kts | 135° |
| 2026-05-05 04:22 | 51.91777 | -0.92311 | 31797 ft | 439 kts | 135° |
| 2026-05-05 04:22 | 51.89648 | -0.88766 | 32095 ft | 438 kts | 135° |
| 2026-05-05 04:22 | 51.87524 | -0.85232 | 32376 ft | 437 kts | 134° |
| 2026-05-05 04:22 | 51.85403 | -0.81715 | 32686 ft | 436 kts | 135° |
| 2026-05-05 04:23 | 51.83288 | -0.78218 | 32948 ft | 435 kts | 135° |
| 2026-05-05 04:23 | 51.81172 | -0.74724 | 33207 ft | 434 kts | 134° |
| 2026-05-05 04:23 | 51.79060 | -0.71234 | 33450 ft | 434 kts | 134° |
| 2026-05-05 04:23 | 51.76952 | -0.67754 | 33693 ft | 434 kts | 134° |
| 2026-05-05 04:24 | 51.74839 | -0.64278 | 33919 ft | 433 kts | 134° |
| 2026-05-05 04:24 | 51.72728 | -0.60813 | 34139 ft | 433 kts | 134° |
| 2026-05-05 04:24 | 51.70613 | -0.57345 | 34338 ft | 433 kts | 134° |
| 2026-05-05 04:25 | 51.66384 | -0.50419 | 34679 ft | 434 kts | 135° |
| 2026-05-05 04:25 | 51.64263 | -0.46951 | 34856 ft | 435 kts | 135° |
| 2026-05-05 04:25 | 51.62142 | -0.43492 | 35031 ft | 435 kts | 135° |
| 2026-05-05 04:25 | 51.60015 | -0.40029 | 35201 ft | 435 kts | 135° |
| 2026-05-05 04:26 | 51.57915 | -0.36613 | 35362 ft | 435 kts | 135° |
| 2026-05-05 04:26 | 51.55788 | -0.33158 | 35520 ft | 435 kts | 135° |
| 2026-05-05 04:26 | 51.53657 | -0.29700 | 35671 ft | 435 kts | 135° |
| 2026-05-05 04:26 | 51.51525 | -0.26245 | 35816 ft | 436 kts | 135° |
| 2026-05-05 04:27 | 51.49390 | -0.22790 | 35960 ft | 436 kts | 135° |
| 2026-05-05 04:27 | 51.47254 | -0.19342 | 36096 ft | 436 kts | 135° |
| 2026-05-05 04:27 | 51.45114 | -0.15891 | 36228 ft | 436 kts | 135° |
| 2026-05-05 04:27 | 51.42974 | -0.12445 | 36354 ft | 436 kts | 135° |
| 2026-05-05 04:28 | 51.40834 | -0.09004 | 36481 ft | 436 kts | 135° |
| 2026-05-05 04:28 | 51.38690 | -0.05558 | 36603 ft | 436 kts | 135° |
| 2026-05-05 04:28 | 51.36547 | -0.02116 | 36717 ft | 437 kts | 135° |
| 2026-05-05 04:29 | 51.33106 | 0.05817 | 36985 ft | 438 kts | 114° |
| 2026-05-05 04:29 | 51.32247 | 0.10503 | 37000 ft | 442 kts | 101° |
| 2026-05-05 04:29 | 51.31803 | 0.15382 | 37015 ft | 445 kts | 98° |
| 2026-05-05 04:30 | 51.31072 | 0.25266 | 37011 ft | 449 kts | 99° |
| 2026-05-05 04:30 | 51.30145 | 0.35059 | 37006 ft | 445 kts | 101° |
| 2026-05-05 04:31 | 51.29135 | 0.44815 | 37006 ft | 445 kts | 101° |
| 2026-05-05 04:31 | 51.28356 | 0.52943 | 37007 ft | 445 kts | 100° |
| 2026-05-05 04:32 | 51.27423 | 0.62725 | 36997 ft | 446 kts | 101° |
| 2026-05-05 04:32 | 51.26449 | 0.72494 | 37006 ft | 446 kts | 101° |
| 2026-05-05 04:33 | 51.25471 | 0.82273 | 37007 ft | 446 kts | 101° |
| 2026-05-05 04:33 | 51.24492 | 0.92057 | 37013 ft | 446 kts | 101° |
| 2026-05-05 04:34 | 51.23499 | 1.01837 | 37007 ft | 447 kts | 101° |
| 2026-05-05 04:34 | 51.22497 | 1.11622 | 37015 ft | 447 kts | 101° |
| 2026-05-05 04:35 | 51.21488 | 1.21417 | 37025 ft | 448 kts | 101° |
| 2026-05-05 04:35 | 51.20470 | 1.31209 | 37028 ft | 448 kts | 101° |
| 2026-05-05 04:36 | 51.19441 | 1.41016 | 37029 ft | 448 kts | 102° |
| 2026-05-05 04:36 | 51.18405 | 1.50810 | 37021 ft | 448 kts | 102° |
| 2026-05-05 04:37 | 51.17365 | 1.60549 | 37014 ft | 449 kts | 102° |
| 2026-05-05 04:37 | 51.16304 | 1.70413 | 37011 ft | 449 kts | 102° |
| 2026-05-05 04:38 | 51.15248 | 1.80144 | 37004 ft | 449 kts | 102° |
| 2026-05-05 04:38 | 51.14177 | 1.89942 | 37010 ft | 449 kts | 102° |
| 2026-05-05 04:39 | 51.13118 | 1.99750 | 37005 ft | 450 kts | 99° |
| 2026-05-05 04:39 | 51.12517 | 2.09673 | 36995 ft | 451 kts | 97° |
| 2026-05-05 04:40 | 51.12028 | 2.19631 | 36955 ft | 452 kts | 97° |
| 2026-05-05 04:40 | 51.11490 | 2.29598 | 36916 ft | 452 kts | 97° |
| 2026-05-05 04:41 | 51.10917 | 2.39574 | 36922 ft | 453 kts | 97° |
| 2026-05-05 04:41 | 51.10359 | 2.49580 | 36946 ft | 454 kts | 97° |
| 2026-05-05 04:42 | 51.09791 | 2.59575 | 36993 ft | 454 kts | 97° |
| 2026-05-05 04:42 | 51.08755 | 2.69425 | 36999 ft | 451 kts | 108° |
| 2026-05-05 04:43 | 51.07006 | 2.78992 | 37011 ft | 450 kts | 109° |
| 2026-05-05 04:43 | 51.05201 | 2.88529 | 37008 ft | 451 kts | 109° |
| 2026-05-05 04:44 | 51.03475 | 2.98122 | 37007 ft | 452 kts | 108° |
| 2026-05-05 04:44 | 51.01732 | 3.07704 | 37005 ft | 451 kts | 109° |
| 2026-05-05 04:45 | 50.99965 | 3.17205 | 36988 ft | 452 kts | 109° |
| 2026-05-05 04:45 | 50.98188 | 3.26784 | 36963 ft | 452 kts | 109° |
| 2026-05-05 04:46 | 50.96407 | 3.36353 | 36965 ft | 452 kts | 109° |
| 2026-05-05 04:46 | 50.94615 | 3.45914 | 36974 ft | 452 kts | 109° |
| 2026-05-05 04:47 | 50.92812 | 3.55473 | 36970 ft | 453 kts | 110° |
| 2026-05-05 04:47 | 50.91003 | 3.65033 | 36978 ft | 453 kts | 110° |
| 2026-05-05 04:48 | 50.89169 | 3.74583 | 36973 ft | 453 kts | 110° |
| 2026-05-05 04:48 | 50.87316 | 3.84124 | 36965 ft | 453 kts | 110° |
| 2026-05-05 04:49 | 50.85466 | 3.93658 | 36961 ft | 453 kts | 110° |
| 2026-05-05 04:49 | 50.83608 | 4.03188 | 36949 ft | 453 kts | 111° |
| 2026-05-05 04:50 | 50.81736 | 4.12713 | 36918 ft | 454 kts | 111° |
| 2026-05-05 04:50 | 50.79856 | 4.22241 | 36878 ft | 454 kts | 111° |
| 2026-05-05 04:51 | 50.77968 | 4.31772 | 36867 ft | 455 kts | 111° |
| 2026-05-05 04:51 | 50.76069 | 4.41314 | 36887 ft | 455 kts | 111° |
| 2026-05-05 04:52 | 50.74162 | 4.50834 | 36902 ft | 455 kts | 111° |
| 2026-05-05 04:52 | 50.72245 | 4.60367 | 36918 ft | 455 kts | 111° |
| 2026-05-05 04:53 | 50.70370 | 4.69913 | 36949 ft | 456 kts | 110° |
| 2026-05-05 04:53 | 50.68549 | 4.79499 | 36950 ft | 456 kts | 110° |
| 2026-05-05 04:54 | 50.66679 | 4.89061 | 36952 ft | 457 kts | 111° |
| 2026-05-05 04:54 | 50.64767 | 4.98612 | 36951 ft | 457 kts | 111° |
| 2026-05-05 04:55 | 50.62785 | 5.08118 | 36950 ft | 457 kts | 112° |
| 2026-05-05 04:55 | 50.60816 | 5.17622 | 36952 ft | 456 kts | 111° |
| 2026-05-05 04:56 | 50.58857 | 5.27127 | 36926 ft | 456 kts | 112° |
| 2026-05-05 04:56 | 50.56891 | 5.36553 | 36888 ft | 457 kts | 112° |
| 2026-05-05 04:57 | 50.54899 | 5.46044 | 36865 ft | 457 kts | 112° |
| 2026-05-05 04:57 | 50.52908 | 5.55533 | 36869 ft | 457 kts | 112° |
| 2026-05-05 04:58 | 50.51090 | 5.65108 | 36863 ft | 460 kts | 106° |
| 2026-05-05 04:58 | 50.49810 | 5.74988 | 36879 ft | 461 kts | 104° |
| 2026-05-05 04:59 | 50.48592 | 5.84877 | 36898 ft | 462 kts | 105° |
| 2026-05-05 04:59 | 50.47286 | 5.94743 | 36902 ft | 461 kts | 106° |
| 2026-05-05 05:00 | 50.45970 | 6.04612 | 36905 ft | 463 kts | 105° |
| 2026-05-05 05:00 | 50.44671 | 6.14498 | 36901 ft | 463 kts | 105° |
| 2026-05-05 05:01 | 50.43355 | 6.24366 | 36910 ft | 462 kts | 106° |
| 2026-05-05 05:01 | 50.42027 | 6.34233 | 36930 ft | 463 kts | 106° |
| 2026-05-05 05:02 | 50.40274 | 6.43880 | 36931 ft | 459 kts | 112° |
| 2026-05-05 05:02 | 50.38254 | 6.53370 | 36932 ft | 459 kts | 113° |
| 2026-05-05 05:03 | 50.36247 | 6.62852 | 36919 ft | 459 kts | 112° |
| 2026-05-05 05:03 | 50.34269 | 6.72372 | 36920 ft | 459 kts | 112° |
| 2026-05-05 05:04 | 50.32261 | 6.81861 | 36909 ft | 460 kts | 112° |
| 2026-05-05 05:04 | 50.30237 | 6.91361 | 36876 ft | 461 kts | 112° |
| 2026-05-05 05:05 | 50.28216 | 7.00856 | 36887 ft | 461 kts | 112° |
| 2026-05-05 05:05 | 50.26180 | 7.10369 | 36865 ft | 462 kts | 112° |
| 2026-05-05 05:06 | 50.24133 | 7.19867 | 36896 ft | 461 kts | 113° |
| 2026-05-05 05:06 | 50.22076 | 7.29378 | 36860 ft | 463 kts | 113° |
| 2026-05-05 05:07 | 50.20010 | 7.38900 | 36885 ft | 463 kts | 113° |
| 2026-05-05 05:07 | 50.17948 | 7.48339 | 36921 ft | 462 kts | 113° |
| 2026-05-05 05:08 | 50.15866 | 7.57837 | 36897 ft | 464 kts | 113° |
| 2026-05-05 05:08 | 50.13773 | 7.67357 | 36870 ft | 465 kts | 113° |
| 2026-05-05 05:09 | 50.11667 | 7.76866 | 36902 ft | 464 kts | 114° |
| 2026-05-05 05:09 | 50.09552 | 7.86363 | 36912 ft | 464 kts | 114° |
| 2026-05-05 05:10 | 50.07430 | 7.95852 | 36914 ft | 464 kts | 114° |
| 2026-05-05 05:10 | 50.05301 | 8.05355 | 36900 ft | 465 kts | 114° |
| 2026-05-05 05:11 | 50.03193 | 8.14866 | 36943 ft | 465 kts | 113° |
| 2026-05-05 05:11 | 50.01160 | 8.24390 | 36944 ft | 464 kts | 113° |
| 2026-05-05 05:12 | 49.99097 | 8.33910 | 36915 ft | 465 kts | 113° |
| 2026-05-05 05:12 | 49.97011 | 8.43400 | 36949 ft | 463 kts | 113° |
| 2026-05-05 05:13 | 49.94852 | 8.52805 | 36914 ft | 460 kts | 120° |
| 2026-05-05 05:13 | 49.91828 | 8.61446 | 36927 ft | 454 kts | 125° |
| 2026-05-05 05:14 | 49.88630 | 8.69841 | 36918 ft | 451 kts | 125° |
| 2026-05-05 05:14 | 49.85504 | 8.78262 | 36865 ft | 451 kts | 124° |
| 2026-05-05 05:15 | 49.82408 | 8.86691 | 36834 ft | 450 kts | 125° |
| 2026-05-05 05:15 | 49.79272 | 8.95070 | 36836 ft | 450 kts | 125° |
| 2026-05-05 05:16 | 49.76133 | 9.03448 | 36833 ft | 451 kts | 124° |
| 2026-05-05 05:16 | 49.72991 | 9.11853 | 36838 ft | 452 kts | 125° |
| 2026-05-05 05:17 | 49.69827 | 9.20259 | 36877 ft | 453 kts | 125° |
| 2026-05-05 05:17 | 49.66657 | 9.28655 | 36927 ft | 452 kts | 125° |
| 2026-05-05 05:18 | 49.63489 | 9.37026 | 36920 ft | 451 kts | 125° |
| 2026-05-05 05:18 | 49.59964 | 9.44840 | 36926 ft | 443 kts | 135° |
| 2026-05-05 05:19 | 49.55865 | 9.51973 | 36888 ft | 441 kts | 137° |
| 2026-05-05 05:19 | 49.52452 | 9.57799 | 36854 ft | 441 kts | 136° |
| 2026-05-05 05:20 | 49.47770 | 9.66040 | 36831 ft | 439 kts | 136° |
| 2026-05-05 05:20 | 49.43753 | 9.73077 | 36834 ft | 436 kts | 136° |
| 2026-05-05 05:21 | 49.40387 | 9.78900 | 36852 ft | 436 kts | 136° |
| 2026-05-05 05:21 | 49.36338 | 9.85903 | 36877 ft | 442 kts | 136° |
| 2026-05-05 05:22 | 49.32250 | 9.92974 | 36855 ft | 441 kts | 136° |
| 2026-05-05 05:22 | 49.30222 | 9.96468 | 36564 ft | 438 kts | 136° |
| 2026-05-05 05:22 | 49.28191 | 9.99954 | 36057 ft | 438 kts | 136° |
| 2026-05-05 05:22 | 49.26191 | 10.03383 | 35498 ft | 437 kts | 136° |
| 2026-05-05 05:23 | 49.24142 | 10.06897 | 34923 ft | 437 kts | 136° |
| 2026-05-05 05:23 | 49.22142 | 10.10320 | 34323 ft | 437 kts | 136° |
| 2026-05-05 05:23 | 49.20116 | 10.13788 | 33724 ft | 437 kts | 136° |
| 2026-05-05 05:23 | 49.18092 | 10.17250 | 33183 ft | 436 kts | 136° |
| 2026-05-05 05:24 | 49.16073 | 10.20701 | 32649 ft | 434 kts | 136° |
| 2026-05-05 05:24 | 49.14057 | 10.24117 | 32098 ft | 432 kts | 137° |
| 2026-05-05 05:24 | 49.12005 | 10.27463 | 31534 ft | 431 kts | 137° |
| 2026-05-05 05:24 | 49.09945 | 10.30781 | 30972 ft | 429 kts | 137° |
| 2026-05-05 05:25 | 49.07889 | 10.34073 | 30445 ft | 427 kts | 138° |
| 2026-05-05 05:25 | 49.05848 | 10.37343 | 29915 ft | 425 kts | 137° |
| 2026-05-05 05:25 | 49.03817 | 10.40606 | 29347 ft | 423 kts | 137° |
| 2026-05-05 05:25 | 49.01797 | 10.43860 | 28803 ft | 421 kts | 137° |
| 2026-05-05 05:26 | 48.99784 | 10.47087 | 28262 ft | 419 kts | 137° |
| 2026-05-05 05:26 | 48.97776 | 10.50289 | 27740 ft | 417 kts | 137° |
| 2026-05-05 05:26 | 48.95777 | 10.53473 | 27222 ft | 414 kts | 137° |
| 2026-05-05 05:26 | 48.93789 | 10.56635 | 26665 ft | 413 kts | 137° |
| 2026-05-05 05:27 | 48.91808 | 10.59791 | 26119 ft | 411 kts | 137° |
| 2026-05-05 05:27 | 48.89838 | 10.62923 | 25597 ft | 409 kts | 137° |
| 2026-05-05 05:27 | 48.85930 | 10.69128 | 24532 ft | 405 kts | 137° |
| 2026-05-05 05:28 | 48.83987 | 10.72207 | 24004 ft | 403 kts | 137° |
| 2026-05-05 05:28 | 48.82050 | 10.75263 | 23477 ft | 401 kts | 137° |
| 2026-05-05 05:28 | 48.80121 | 10.78305 | 22961 ft | 399 kts | 137° |
| 2026-05-05 05:28 | 48.78206 | 10.81329 | 22471 ft | 396 kts | 137° |
| 2026-05-05 05:29 | 48.76299 | 10.84327 | 21977 ft | 394 kts | 137° |
| 2026-05-05 05:29 | 48.74398 | 10.87298 | 21482 ft | 391 kts | 137° |
| 2026-05-05 05:29 | 48.72508 | 10.90247 | 21016 ft | 389 kts | 137° |
| 2026-05-05 05:29 | 48.70633 | 10.93174 | 20558 ft | 386 kts | 137° |
| 2026-05-05 05:30 | 48.68769 | 10.96084 | 20098 ft | 384 kts | 137° |
| 2026-05-05 05:30 | 48.66917 | 10.98973 | 19625 ft | 381 kts | 137° |
| 2026-05-05 05:30 | 48.65081 | 11.01826 | 19180 ft | 376 kts | 137° |
| 2026-05-05 05:30 | 48.63269 | 11.04641 | 18750 ft | 371 kts | 137° |
| 2026-05-05 05:31 | 48.61485 | 11.07414 | 18324 ft | 366 kts | 137° |
| 2026-05-05 05:31 | 48.59726 | 11.10146 | 17909 ft | 360 kts | 137° |
| 2026-05-05 05:31 | 48.57961 | 11.12796 | 17507 ft | 354 kts | 142° |
| 2026-05-05 05:31 | 48.56016 | 11.15005 | 17135 ft | 347 kts | 147° |
| 2026-05-05 05:32 | 48.54070 | 11.17107 | 16750 ft | 343 kts | 142° |
| 2026-05-05 05:32 | 48.52541 | 11.19848 | 16362 ft | 344 kts | 121° |
| 2026-05-05 05:32 | 48.51844 | 11.23303 | 15989 ft | 349 kts | 97° |
| 2026-05-05 05:32 | 48.52079 | 11.26946 | 15649 ft | 351 kts | 79° |
| 2026-05-05 05:33 | 48.52688 | 11.30509 | 15298 ft | 350 kts | 76° |
| 2026-05-05 05:33 | 48.53335 | 11.34039 | 14935 ft | 350 kts | 77° |
| 2026-05-05 05:33 | 48.53934 | 11.37606 | 14507 ft | 351 kts | 79° |
| 2026-05-05 05:33 | 48.54457 | 11.41203 | 14067 ft | 351 kts | 80° |
| 2026-05-05 05:34 | 48.54941 | 11.44814 | 13655 ft | 351 kts | 81° |
| 2026-05-05 05:34 | 48.55424 | 11.48421 | 13254 ft | 350 kts | 80° |
| 2026-05-05 05:34 | 48.55921 | 11.52012 | 12856 ft | 349 kts | 80° |
| 2026-05-05 05:34 | 48.56429 | 11.55589 | 12459 ft | 348 kts | 80° |
| 2026-05-05 05:35 | 48.56813 | 11.59182 | 11988 ft | 346 kts | 90° |
| 2026-05-05 05:35 | 48.56486 | 11.62717 | 11557 ft | 337 kts | 108° |
| 2026-05-05 05:35 | 48.55746 | 11.66043 | 11147 ft | 332 kts | 112° |
| 2026-05-05 05:35 | 48.54925 | 11.69277 | 10733 ft | 328 kts | 112° |
| 2026-05-05 05:36 | 48.54113 | 11.72466 | 10323 ft | 324 kts | 112° |
| 2026-05-05 05:36 | 48.53347 | 11.75628 | 10045 ft | 316 kts | 110° |
| 2026-05-05 05:36 | 48.52643 | 11.78699 | 9911 ft | 303 kts | 110° |
| 2026-05-05 05:36 | 48.51979 | 11.81654 | 9758 ft | 292 kts | 110° |
| 2026-05-05 05:37 | 48.51332 | 11.84503 | 9342 ft | 291 kts | 110° |
| 2026-05-05 05:37 | 48.50664 | 11.87393 | 8867 ft | 292 kts | 110° |
| 2026-05-05 05:37 | 48.49993 | 11.90283 | 8430 ft | 291 kts | 109° |
| 2026-05-05 05:37 | 48.49317 | 11.93195 | 8012 ft | 289 kts | 109° |
| 2026-05-05 05:38 | 48.48655 | 11.96040 | 7630 ft | 286 kts | 109° |
| 2026-05-05 05:38 | 48.48013 | 11.98809 | 7270 ft | 282 kts | 109° |
| 2026-05-05 05:38 | 48.47361 | 12.01604 | 6944 ft | 278 kts | 109° |
| 2026-05-05 05:38 | 48.46731 | 12.04308 | 6601 ft | 276 kts | 109° |
| 2026-05-05 05:39 | 48.46097 | 12.07031 | 6245 ft | 275 kts | 109° |
| 2026-05-05 05:39 | 48.45464 | 12.09752 | 5883 ft | 275 kts | 109° |
| 2026-05-05 05:39 | 48.44830 | 12.12459 | 5520 ft | 274 kts | 109° |
| 2026-05-05 05:39 | 48.44183 | 12.15146 | 5181 ft | 272 kts | 112° |
| 2026-05-05 05:40 | 48.43117 | 12.17426 | 4968 ft | 262 kts | 141° |
| 2026-05-05 05:40 | 48.41536 | 12.18510 | 4970 ft | 246 kts | 173° |
| 2026-05-05 05:40 | 48.39891 | 12.18160 | 4983 ft | 239 kts | 206° |
| 2026-05-05 05:40 | 48.38659 | 12.16531 | 4992 ft | 239 kts | 239° |
| 2026-05-05 05:41 | 48.38223 | 12.14157 | 4997 ft | 239 kts | 272° |
| 2026-05-05 05:41 | 48.38432 | 12.11699 | 5011 ft | 232 kts | 279° |
| 2026-05-05 05:41 | 48.38594 | 12.09371 | 4920 ft | 218 kts | 272° |
| 2026-05-05 05:41 | 48.38561 | 12.07136 | 4750 ft | 208 kts | 266° |
| 2026-05-05 05:42 | 48.38435 | 12.04994 | 4474 ft | 203 kts | 264° |
| 2026-05-05 05:42 | 48.38289 | 12.02911 | 4205 ft | 198 kts | 264° |
| 2026-05-05 05:42 | 48.38133 | 12.00888 | 3950 ft | 192 kts | 263° |
| 2026-05-05 05:42 | 48.37978 | 11.98927 | 3709 ft | 186 kts | 263° |
| 2026-05-05 05:43 | 48.37831 | 11.97028 | 3457 ft | 177 kts | 263° |
| 2026-05-05 05:43 | 48.37698 | 11.95264 | 3245 ft | 161 kts | 263° |
| 2026-05-05 05:43 | 48.37574 | 11.93664 | 3025 ft | 147 kts | 263° |
| 2026-05-05 05:43 | 48.37460 | 11.92186 | 2839 ft | 140 kts | 263° |
| 2026-05-05 05:44 | 48.37350 | 11.90738 | 2649 ft | 139 kts | 263° |
| 2026-05-05 05:44 | 48.37240 | 11.89302 | 2464 ft | 138 kts | 263° |
| 2026-05-05 05:44 | 48.37130 | 11.87869 | 2281 ft | 138 kts | 262° |
| 2026-05-05 05:44 | 48.37018 | 11.86436 | 2100 ft | 138 kts | 262° |
| 2026-05-05 05:45 | 48.36916 | 11.85028 | 1917 ft | 137 kts | 262° |
| 2026-05-05 05:45 | 48.36814 | 11.83604 | 1721 ft | 136 kts | 262° |
| 2026-05-05 05:45 | 48.36697 | 11.82190 | 1558 ft | 136 kts | 262° |
| 2026-05-05 05:45 | 48.36591 | 11.80851 | 1502 ft | 108 kts | 262° |
| 2026-05-05 05:46 | 48.36539 | 11.80179 | 1501 ft | 34 kts | 262° |